Metar Cercanos

 

LEPA - Palma De Mallorc, Spain
Distance from station: ONO 38km
Actualización: 19/10/2018 06:30
Few Clouds
Few Clouds
 Viento del ENE
Viento: ENE 11 km/h
Temperatura: 18°C
Rocío: 18°C
Humedad: 100%
Barómetro: 1010 hPa
Clouds: Few Clouds
Visibility: 10 km
Cloud details: Few Clouds 488 m
Few Clouds 671 m
2018/10/19 04:30 LEPA 190430Z 07006KT 9999 FEW016 FEW022TCU 18/18 Q1010 NOSIG
LEMH - Mahon/Menorca Is, Spain
Distance from station: ENE 105km
Actualización: 19/10/2018 06:30
Despejado
Despejado
 Viento del E
Viento: E 17 km/h
Temperatura: 20°C
Rocío: 18°C
Humedad: 88%
Barómetro: 1011 hPa
Resumen: Despejado
Visibility: greater than 10 km
2018/10/19 04:30 LEMH 190430Z 08009KT CAVOK 20/18 Q1011
 
LEIB - Ibiza/Es Codola, Spain
Distance from station: OSO 165km
Actualización: 19/10/2018 06:00
Few Clouds
Few Clouds
 Viento del N
Viento: N 6 km/h
Temperatura: 17°C
Rocío: 16°C
Humedad: 94%
Barómetro: 1009 hPa
Clouds: Few Clouds
Visibility: 10 km
Cloud details: Few Clouds 457 m
2018/10/19 04:00 LEIB 190400Z 01003KT 340V080 9999 FEW015 17/16 Q1009 NOSIG
LEBL - Barcelona Airpor, Spain
Distance from station: NNO 225km
Actualización: 19/10/2018 06:00
Parcialmente nuboso
Parcialmente nuboso
 Viento del ENE
Viento: ENE 24 km/h
Temperatura: 20°C
Rocío: 15°C
Humedad: 73%
Barómetro: 1012 hPa
Clouds: Parcialmente nuboso
Visibility: 10 km
Cloud details: Few Clouds 762 m
Parcialmente nuboso 1067 m
2018/10/19 04:00 LEBL 190400Z 06013KT 9999 FEW025CB SCT035 20/15 Q1012 TEMPO 4000 TSRA
 
LEVC - Valencia (civ/Mi, Spain
Distance from station: NO 188km
Actualización: 19/10/2018 06:30
Rain showers, Muy nuboso
Rain showers, Muy nuboso
 Viento del NNO
Viento: NNO 11 km/h
Temperatura: 16°C
Rocío: 16°C
Humedad: 100%
Barómetro: 1011 hPa
Resumen: Rain Showers
Clouds: Muy nuboso
Visibility: 6 km
Cloud details: Parcialmente nuboso 610 m
Few Clouds 914 m
Muy nuboso 1219 m
2018/10/19 04:30 LEVC 190430Z 33006KT 6000 SHRA SCT020 FEW030TCU BKN040 16/16 Q1011 TEMPO 4000
LEGE - Gerona/Costa Bra, Spain
Distance from station: N 276km
Actualización: 19/10/2018 06:30
Muy nuboso
Muy nuboso
 Viento del NNE
Viento: NNE 15 km/h
Temperatura: 18°C
Rocío: 14°C
Humedad: 78%
Barómetro: 1014 hPa
Clouds: Muy nuboso
Visibility: 10 km
Cloud details: Few Clouds 1829 m
Muy nuboso 2743 m
2018/10/19 04:30 LEGE 190430Z 03008KT 9999 FEW060 BKN090 18/14 Q1014
 
LEAL - Alicante/El Alte, Spain
Distance from station: OSO 344km
Actualización: 19/10/2018 06:30
Parcialmente nuboso
Parcialmente nuboso
 Viento del SSO
Viento: SSO 7 km/h
Temperatura: 17°C
Rocío: 15°C
Humedad: 88%
Barómetro: 1010 hPa
Clouds: Parcialmente nuboso
Visibility: 10 km
Cloud details: Few Clouds 914 m
Parcialmente nuboso 1981 m
2018/10/19 04:30 LEAL 190430Z 21004KT 170V230 9999 FEW030 SCT065 17/15 Q1010 NOSIG
LEAM - Almeria Airport, Spain
Distance from station: SSO 56km
Actualización: 19/10/2018 06:30
Despejado
Despejado
 Viento del NNO
Viento: NNO 17 km/h
Temperatura: 14°C
Rocío: 10°C
Humedad: 77%
Barómetro: 1010 hPa
Resumen: Despejado
Visibility: greater than 10 km
2018/10/19 04:30 LEAM 190430Z 33009KT CAVOK 14/10 Q1010
 
LEZG - Zaragoza (mil/Ci, Spain
Distance from station: NO 431km
Actualización: 19/10/2018 06:30
Lluvia débil, Cubierto
Lluvia débil, Cubierto
 Viento del ONO
Viento: ONO 17 km/h
Temperatura: 16°C
Rocío: 14°C
Humedad: 88%
Barómetro: 1014 hPa
Resumen: Lluvia débil
Clouds: Cubierto
Visibility: 10 km
Cloud details: Cubierto 1524 m
2018/10/19 04:30 LEZG 190430Z 29009KT 9999 -RA OVC050 16/14 Q1014
LEMD - Madrid/Barajas, Spain
Distance from station: ONO 234km
Actualización: 19/10/2018 06:30
Lluvia, Muy nuboso
Lluvia, Muy nuboso
 Viento del N
Viento: N 6 km/h
Temperatura: 14°C
Rocío: 13°C
Humedad: 94%
Barómetro: 1013 hPa
Resumen: Lluvia
Clouds: Muy nuboso
Visibility: 10 km
Cloud details: Few Clouds 610 m
Muy nuboso 2134 m
2018/10/19 04:30 LEMD 190430Z 35003KT 310V020 9999 RA FEW020 BKN070 14/13 Q1013 R88/29//95 NOSIG
 
LEGR - Granada Airport, Spain
Distance from station: OSO 62km
Actualización: 19/10/2018 06:30
Niebla, Cubierto
Niebla, Cubierto
 Viento del varies
Viento: varies 2 km/h
Temperatura: 7°C
Rocío: 7°C
Humedad: 100%
Barómetro: 1011 hPa
Resumen: Niebla
Clouds: Cubierto
Visibility: 0 km
Cloud details: Cubierto 30 m
2018/10/19 04:30 LEGR 190430Z VRB01KT 0100 R09/0350N FG VV001 07/07 Q1011
LEMG - Malaga (civ/Mil), Spain
Distance from station: OSO 227km
Actualización: 19/10/2018 06:30
Despejado
Despejado
 Viento del ONO
Viento: ONO 15 km/h
Temperatura: 11°C
Rocío: 11°C
Humedad: 100%
Barómetro: 1010 hPa
Resumen: Despejado
Visibility: greater than 10 km
2018/10/19 04:30 LEMG 190430Z 30008KT CAVOK 11/11 Q1010 NOSIG
 
LEZL - Sevilla (civ/Mil, Spain
Distance from station: S 318km
Actualización: 19/10/2018 06:30
Despejado
Despejado
 Viento del NE
Viento: NE 11 km/h
Temperatura: 14°C
Rocío: 12°C
Humedad: 88%
Barómetro: 1010 hPa
Resumen: Despejado
Visibility: greater than 10 km
2018/10/19 04:30 LEZL 190430Z 05006KT CAVOK 14/12 Q1010 NOSIG
LEVT - Vitoria, Spain
Distance from station: NO 226km
Actualización: 19/10/2018 06:30
Muy nuboso
Muy nuboso
 Viento del N
Viento: N 13 km/h
Temperatura: 14°C
Rocío: 13°C
Humedad: 94%
Barómetro: 1017 hPa
Clouds: Muy nuboso
Visibility: 8 km
Cloud details: Few Clouds 366 m
Parcialmente nuboso 762 m
Muy nuboso 1067 m
2018/10/19 04:30 LEVT 190430Z 01007KT 8000 FEW012 SCT025 BKN035 14/13 Q1017
 
LEBB - Bilbao/Sondica, Spain
Distance from station: NNO 235km
Actualización: 19/10/2018 06:30
Muy nuboso
Muy nuboso
 Viento del NNO
Viento: NNO 13 km/h
Temperatura: 17°C
Rocío: 16°C
Humedad: 94%
Barómetro: 1018 hPa
Clouds: Muy nuboso
Visibility: 8 km
Cloud details: Parcialmente nuboso 366 m
Muy nuboso 610 m
Muy nuboso 975 m
2018/10/19 04:30 LEBB 190430Z 34007KT 300V010 8000 SCT012 BKN020 BKN032 17/16 Q1018 TEMPO 3000 BR
LESO - San Sebastian/Fu, Spain
Distance from station: N 231km
Actualización: 19/10/2018 06:30
Muy nuboso
Muy nuboso
 Viento del calm
Viento: Calma
Temperatura: 17°C
Rocío: 16°C
Humedad: 94%
Barómetro: 1017 hPa
Clouds: Muy nuboso
Visibility: 7 km
Cloud details: Few Clouds 213 m
Muy nuboso 305 m
Muy nuboso 518 m
2018/10/19 04:30 LESO 190430Z 00000KT 7000 FEW007 BKN010 BKN017 17/16 Q1017
 
LEVD - Valladolid(Mil/C, Spain
Distance from station: ONO 239km
Actualización: 18/10/2018 21:30
NOT Current
Few Clouds
Few Clouds
 Viento del NE
Viento: NE 31 km/h
Temperatura: 13°C
Rocío: 10°C
Humedad: 82%
Barómetro: 1015 hPa
Clouds: Few Clouds
Visibility: 10 km
Cloud details: Few Clouds 610 m
2018/10/18 19:30 LEVD 181930Z 05017KT 9999 FEW020 13/10 Q1015
LESA - Salamanca (civ/M, Spain
Distance from station: ONO 349km
Actualización: 19/10/2018 06:30
Muy nuboso
Muy nuboso
 Viento del ENE
Viento: ENE 20 km/h
Temperatura: 13°C
Rocío: 11°C
Humedad: 88%
Barómetro: 1014 hPa
Clouds: Muy nuboso
Visibility: 10 km
Cloud details: Muy nuboso 1158 m
2018/10/19 04:30 LESA 190430Z AUTO 06011KT 9999 BKN038/// 13/11 Q1014
 
LEXJ - Santander/Paraya, Spain
Distance from station: NNO 247km
Actualización: 19/10/2018 06:30
Muy nuboso
Muy nuboso
 Viento del O
Viento: O 13 km/h
Temperatura: 17°C
Rocío: 17°C
Humedad: 100%
Barómetro: 1018 hPa
Clouds: Muy nuboso
Visibility: 8 km
Cloud details: Parcialmente nuboso 244 m
Muy nuboso 427 m
Muy nuboso 1768 m
2018/10/19 04:30 LEXJ 190430Z 26007KT 8000 SCT008 BKN014 BKN058 17/17 Q1018
LEAS - Asturias/Aviles, Spain
Distance from station: NO 214km
Actualización: 19/10/2018 06:30
Mist, Parcialmente nuboso
Mist, Parcialmente nuboso
 Viento del SO
Viento: SO 4 km/h
Temperatura: 14°C
Rocío: 14°C
Humedad: 100%
Barómetro: 1019 hPa
Resumen: Mist
Clouds: Parcialmente nuboso
Visibility: 5 km
2018/10/19 04:30 LEAS 190430Z 23002KT 5000 BR NSC 14/14 Q1019 TEMPO 3000 BR BKN010
 
LECO - La Coruna/Alvedr, Spain
Distance from station: ONO 222km
Actualización: 19/10/2018 06:30
Despejado
Despejado
 Viento del N
Viento: N 7 km/h
Temperatura: 15°C
Rocío: 14°C
Humedad: 94%
Barómetro: 1018 hPa
Resumen: Despejado
Visibility: greater than 10 km
2018/10/19 04:30 LECO 190430Z 36004KT 320V060 CAVOK 15/14 Q1018 NOSIG
LEVX - Vigo/Peinador, Spain
Distance from station: O 214km
Actualización: 19/10/2018 06:30
Despejado
Despejado
 Viento del ENE
Viento: ENE 11 km/h
Temperatura: 15°C
Rocío: 12°C
Humedad: 82%
Barómetro: 1015 hPa
Resumen: Despejado
Visibility: greater than 10 km
2018/10/19 04:30 LEVX 190430Z 06006KT 340V110 CAVOK 15/12 Q1015 NOSIG